Time;durP1;ratioP1;P1;durP2;ratioP2;P2;SDS_P1;SDS_P2;PMS_P1;PMS_P2;Temp;Humidity;BMP_temperature;BMP_pressure;BME280_temperature;BME280_humidity;BME280_pressure;Samples;Min_cycle;Max_cycle;Signal;HPM_P1;HPM_P2
2021/10/26 00:00:14;;;;;;;14.52;8.30;;;;;;;6.25;69.32;101050.25;5050219;28;20021;-50
2021/10/26 00:02:40;;;;;;;15.93;8.27;;;;;;;6.20;69.38;101052.47;5050108;28;20028;-52
2021/10/26 00:05:06;;;;;;;15.73;8.38;;;;;;;6.30;68.91;101047.16;5049337;28;20044;-50
2021/10/26 00:07:31;;;;;;;14.27;8.23;;;;;;;6.39;68.11;101046.31;5050170;28;20128;-51
2021/10/26 00:09:57;;;;;;;15.45;8.60;;;;;;;6.42;67.57;101040.75;5058598;28;20031;-51
2021/10/26 00:12:22;;;;;;;15.75;8.50;;;;;;;6.80;66.71;101044.19;5070293;28;20024;-52
2021/10/26 00:14:48;;;;;;;15.98;8.75;;;;;;;6.61;67.74;101042.47;5070157;28;20472;-50
2021/10/26 00:17:14;;;;;;;18.45;9.43;;;;;;;6.54;67.86;101040.56;5070041;28;20017;-49
2021/10/26 00:19:39;;;;;;;16.20;8.55;;;;;;;6.55;66.75;101035.13;5070120;28;20024;-50
2021/10/26 00:22:05;;;;;;;15.05;8.15;;;;;;;6.29;68.77;101034.13;5069895;28;20025;-51
2021/10/26 00:24:30;;;;;;;13.23;8.35;;;;;;;6.16;68.52;101029.97;5070052;28;20130;-50
2021/10/26 00:26:56;;;;;;;13.95;8.35;;;;;;;6.11;69.49;101024.28;5070294;28;20086;-51
2021/10/26 00:29:22;;;;;;;12.98;8.73;;;;;;;5.93;70.55;101020.66;5070238;28;20029;-51
2021/10/26 00:31:47;;;;;;;15.10;9.23;;;;;;;5.88;70.62;101019.28;5070028;28;20021;-48
2021/10/26 00:34:13;;;;;;;17.85;8.90;;;;;;;5.70;71.33;101020.16;5068423;28;20114;-48
2021/10/26 00:36:39;;;;;;;20.13;9.80;;;;;;;5.39;72.58;101018.50;5069612;28;20051;-50
2021/10/26 00:39:05;;;;;;;21.13;10.02;;;;;;;5.81;71.82;101020.00;5069909;28;20033;-48
2021/10/26 00:41:31;;;;;;;26.00;9.80;;;;;;;5.60;71.56;101026.28;5069712;28;20024;-48
2021/10/26 00:43:56;;;;;;;16.42;9.38;;;;;;;5.47;72.80;101020.44;5069572;28;20019;-48
2021/10/26 00:46:29;;;;;;;22.15;9.95;;;;;;;5.47;72.26;101017.78;5069475;28;20499;-48
2021/10/26 00:48:57;;;;;;;20.60;10.55;;;;;;;5.33;72.50;101016.41;5069631;28;20036;-47
2021/10/26 00:51:22;;;;;;;21.80;9.80;;;;;;;5.54;71.95;101021.56;5069458;28;20031;-48
2021/10/26 00:53:48;;;;;;;23.63;10.88;;;;;;;5.47;72.40;101005.41;5069444;28;20428;-48
2021/10/26 00:56:14;;;;;;;18.73;10.95;;;;;;;5.31;73.13;101004.31;5064768;28;20017;-48
2021/10/26 00:58:40;;;;;;;19.42;11.02;;;;;;;5.26;73.08;101002.09;5048571;28;20198;-49
2021/10/26 01:01:05;;;;;;;20.48;10.70;;;;;;;5.33;72.86;101007.63;5049873;28;20481;-49
2021/10/26 01:03:31;;;;;;;22.30;11.50;;;;;;;4.99;74.15;101005.38;5050102;28;20025;-52
2021/10/26 01:05:56;;;;;;;25.23;13.30;;;;;;;5.18;72.95;100991.38;5053834;28;20033;-49
2021/10/26 01:08:22;;;;;;;25.13;13.52;;;;;;;5.10;73.59;101002.59;5053892;28;20025;-51
2021/10/26 01:10:48;;;;;;;25.55;15.02;;;;;;;5.14;73.06;100992.63;5068658;28;20487;-51
2021/10/26 01:13:13;;;;;;;26.15;14.18;;;;;;;5.22;73.13;100988.34;5072491;28;20032;-48
2021/10/26 01:15:39;;;;;;;31.83;16.15;;;;;;;5.24;72.91;100982.91;5073480;28;20357;-50
2021/10/26 01:18:04;;;;;;;27.88;15.95;;;;;;;5.33;72.39;100986.50;5073490;28;20424;-51
2021/10/26 01:20:30;;;;;;;30.08;16.10;;;;;;;5.47;71.75;100983.47;5073317;28;20617;-51
2021/10/26 01:22:55;;;;;;;30.52;15.82;;;;;;;5.42;71.30;100986.50;5073195;28;20557;-48
2021/10/26 01:25:21;;;;;;;26.30;15.15;;;;;;;5.35;72.06;100979.28;5073029;28;20028;-52
2021/10/26 01:27:48;;;;;;;28.90;15.73;;;;;;;5.40;71.80;100975.25;5073221;28;20032;-50
2021/10/26 01:30:14;;;;;;;29.73;16.70;;;;;;;5.57;71.12;100970.25;5073612;28;20017;-50
2021/10/26 01:32:40;;;;;;;25.55;15.30;;;;;;;5.54;71.42;100970.53;5072895;28;20040;-49
2021/10/26 01:35:06;;;;;;;24.98;14.73;;;;;;;5.48;72.09;100977.19;5073215;28;20625;-49
2021/10/26 01:37:31;;;;;;;27.33;15.63;;;;;;;5.78;70.19;100976.19;5072884;28;20070;-49
2021/10/26 01:39:58;;;;;;;28.27;16.05;;;;;;;5.47;71.30;100973.72;5073070;28;20107;-48
2021/10/26 01:42:24;;;;;;;31.35;17.00;;;;;;;5.55;71.23;100974.84;5072572;28;20030;-48
2021/10/26 01:44:50;;;;;;;29.63;16.38;;;;;;;5.78;70.26;100976.19;5072312;28;20024;-48
2021/10/26 01:47:15;;;;;;;31.05;16.80;;;;;;;5.39;71.26;100976.25;5072689;28;20029;-51
2021/10/26 01:49:41;;;;;;;29.33;16.55;;;;;;;5.08;72.61;100971.09;5072841;28;20146;-51
2021/10/26 01:52:06;;;;;;;30.95;16.60;;;;;;;5.12;72.80;100978.72;5072851;28;20055;-52
2021/10/26 01:54:37;;;;;;;29.20;16.67;;;;;;;5.00;72.97;100972.75;5072878;28;20054;-51
2021/10/26 01:57:03;;;;;;;29.92;16.33;;;;;;;5.30;72.50;100977.06;5062507;28;20032;-50
2021/10/26 01:59:30;;;;;;;29.38;16.80;;;;;;;5.36;72.66;100963.31;5052675;28;20075;-52
2021/10/26 02:01:55;;;;;;;24.48;15.70;;;;;;;5.50;71.93;100964.69;5035369;28;20024;-48
2021/10/26 02:04:20;;;;;;;27.55;16.05;;;;;;;5.46;71.46;100963.31;5052656;28;20389;-52
2021/10/26 02:06:46;;;;;;;28.48;15.75;;;;;;;5.10;73.37;100939.28;5052478;28;20033;-48
2021/10/26 02:09:11;;;;;;;25.98;15.57;;;;;;;5.08;72.30;100928.88;5055705;28;20024;-48
2021/10/26 02:11:37;;;;;;;28.48;15.50;;;;;;;5.37;72.27;100959.72;5072452;28;20033;-48
2021/10/26 02:14:02;;;;;;;29.20;15.60;;;;;;;5.37;72.56;100957.06;5072709;28;20020;-48
2021/10/26 02:16:28;;;;;;;25.80;15.57;;;;;;;5.60;71.52;100951.50;5071633;28;20887;-48
2021/10/26 02:18:53;;;;;;;26.35;15.13;;;;;;;5.43;72.29;100953.88;5072464;28;20012;-48
2021/10/26 02:21:19;;;;;;;26.25;15.15;;;;;;;5.59;72.30;100952.47;5072205;28;20025;-49
2021/10/26 02:23:44;;;;;;;26.30;14.32;;;;;;;5.60;71.81;100946.22;5072462;28;20016;-49
2021/10/26 02:26:12;;;;;;;27.42;15.18;;;;;;;5.52;71.75;100951.34;5072275;28;20031;-51
2021/10/26 02:28:37;;;;;;;29.63;14.90;;;;;;;5.30;72.69;100955.97;5072321;28;20380;-49
2021/10/26 02:31:03;;;;;;;29.25;14.57;;;;;;;5.29;73.17;100956.91;5072221;28;20043;-50
2021/10/26 02:33:28;;;;;;;25.15;14.48;;;;;;;5.59;71.80;100947.19;5071812;28;20040;-49
2021/10/26 02:35:54;;;;;;;30.65;15.57;;;;;;;5.51;72.34;100947.88;5071959;28;20036;-49
2021/10/26 02:38:19;;;;;;;27.27;14.45;;;;;;;5.45;72.68;100946.63;5070857;28;20033;-48
2021/10/26 02:40:45;;;;;;;26.08;14.75;;;;;;;5.35;72.84;100948.47;5072014;28;20035;-48
2021/10/26 02:43:10;;;;;;;24.15;14.00;;;;;;;5.51;73.25;100947.88;5071886;28;20025;-49
2021/10/26 02:45:36;;;;;;;25.65;14.93;;;;;;;5.51;72.16;100939.13;5071663;28;20020;-48
2021/10/26 02:48:01;;;;;;;21.52;14.00;;;;;;;5.57;72.09;100942.03;5071772;28;20087;-49
2021/10/26 02:50:27;;;;;;;24.65;14.60;;;;;;;5.52;71.89;100936.38;5071912;28;20178;-48
2021/10/26 02:52:52;;;;;;;24.50;14.30;;;;;;;5.74;70.72;100934.38;5071582;28;20491;-48
2021/10/26 02:55:18;;;;;;;28.02;14.88;;;;;;;5.86;70.90;100934.06;5071598;28;20029;-50
2021/10/26 02:57:44;;;;;;;26.52;14.82;;;;;;;5.73;71.33;100932.69;5055635;28;20017;-48
2021/10/26 03:00:11;;;;;;;26.83;14.82;;;;;;;5.78;71.06;100930.47;5051877;28;20035;-50
2021/10/26 03:02:37;;;;;;;29.25;14.50;;;;;;;5.82;71.00;100929.19;5051724;28;20024;-50
2021/10/26 03:05:03;;;;;;;27.30;14.30;;;;;;;5.83;71.53;100936.16;5051830;28;20051;-49
2021/10/26 03:07:29;;;;;;;26.63;14.50;;;;;;;5.98;70.42;100933.91;5051598;28;20024;-48
2021/10/26 03:09:54;;;;;;;26.45;15.23;;;;;;;6.01;70.25;100931.78;5060488;28;20389;-49
2021/10/26 03:12:20;;;;;;;27.13;14.25;;;;;;;5.83;70.47;100930.88;5070112;28;20025;-49
2021/10/26 03:14:45;;;;;;;27.00;15.27;;;;;;;5.61;71.50;100935.47;5071305;28;20028;-49
2021/10/26 03:17:11;;;;;;;32.67;15.13;;;;;;;5.59;72.54;100936.63;5071096;28;20031;-48
2021/10/26 03:19:36;;;;;;;27.75;15.25;;;;;;;5.85;71.17;100935.03;5071006;28;20028;-48
2021/10/26 03:22:02;;;;;;;28.00;14.48;;;;;;;5.78;70.60;100931.28;5071223;28;20037;-48
2021/10/26 03:24:28;;;;;;;25.33;14.05;;;;;;;5.65;70.79;100934.25;5070858;28;20032;-49
2021/10/26 03:26:54;;;;;;;24.45;14.27;;;;;;;5.62;70.87;100926.59;5070868;28;20440;-49
2021/10/26 03:29:20;;;;;;;25.27;13.73;;;;;;;5.64;70.33;100926.47;5070564;28;20028;-49
2021/10/26 03:31:46;;;;;;;25.42;14.77;;;;;;;5.75;69.02;100930.72;5071143;28;20096;-49
2021/10/26 03:34:13;;;;;;;27.85;14.48;;;;;;;5.66;69.91;100932.44;5070681;28;20056;-49
2021/10/26 03:36:38;;;;;;;27.60;14.13;;;;;;;5.58;69.36;100913.81;5070760;28;20025;-49
2021/10/26 03:39:04;;;;;;;24.25;13.15;;;;;;;5.72;68.89;100925.75;5070758;28;20032;-49
2021/10/26 03:41:29;;;;;;;84.10;43.10;;;;;;;5.76;69.45;100930.59;5070938;28;20024;-49
2021/10/26 03:43:55;;;;;;;44.22;22.92;;;;;;;5.77;69.28;100926.13;5070739;28;20024;-49
2021/10/26 03:46:20;;;;;;;19.45;12.38;;;;;;;5.41;69.79;100924.13;5070712;28;20024;-48
2021/10/26 03:48:46;;;;;;;21.50;12.45;;;;;;;5.76;68.26;100924.50;5070558;28;20025;-48
2021/10/26 03:51:12;;;;;;;20.98;12.10;;;;;;;5.41;69.47;100931.22;5070507;28;20031;-48
2021/10/26 03:53:37;;;;;;;20.35;11.32;;;;;;;5.52;69.47;100927.59;5062361;28;20065;-49
2021/10/26 03:56:03;;;;;;;23.33;12.35;;;;;;;5.48;68.87;100922.59;5050147;28;20045;-49
2021/10/26 03:58:30;;;;;;;21.40;12.52;;;;;;;5.61;68.46;100927.56;5050246;28;20545;-50
2021/10/26 04:00:55;;;;;;;20.50;11.93;;;;;;;5.43;69.36;100927.47;5050096;28;20095;-49
2021/10/26 04:03:21;;;;;;;21.02;11.77;;;;;;;5.37;69.58;100930.69;5050021;28;20037;-48
2021/10/26 04:06:02;;;;;;;22.42;11.80;;;;;;;5.24;69.51;100928.31;5049182;28;20370;-49
2021/10/26 04:11:24;;;;;;;22.55;12.02;;;;;;;5.25;70.09;100926.50;5049435;28;20021;-47
2021/10/26 04:13:50;;;;;;;24.35;12.15;;;;;;;5.20;70.11;100926.94;5049300;28;20489;-48
2021/10/26 04:16:15;;;;;;;18.63;11.68;;;;;;;5.11;70.13;100906.66;5049227;28;20024;-48
2021/10/26 04:18:41;;;;;;;25.52;12.98;;;;;;;5.27;69.86;100914.84;5049162;28;20020;-47
2021/10/26 04:21:07;;;;;;;26.77;12.88;;;;;;;4.96;70.84;100911.50;5049101;28;20028;-49
2021/10/26 04:23:34;;;;;;;24.50;13.13;;;;;;;5.16;69.88;100915.00;5048856;28;20025;-49
2021/10/26 04:26:00;;;;;;;20.27;12.45;;;;;;;5.13;70.15;100915.25;5046314;28;20033;-49
2021/10/26 04:28:25;;;;;;;20.35;12.45;;;;;;;4.89;71.73;100899.84;5043465;28;20390;-49
2021/10/26 04:30:51;;;;;;;21.40;12.05;;;;;;;5.05;70.88;100899.31;5049046;28;20151;-49
2021/10/26 04:33:16;;;;;;;23.35;15.82;;;;;;;5.06;71.01;100900.94;5048864;28;20056;-49
2021/10/26 04:35:42;;;;;;;22.83;13.10;;;;;;;5.00;70.49;100901.50;5048156;28;20047;-49
2021/10/26 04:38:07;;;;;;;24.58;12.48;;;;;;;4.93;70.36;100906.53;5048304;28;20434;-49
2021/10/26 04:40:33;;;;;;;20.98;12.25;;;;;;;4.91;70.40;100905.81;5052649;28;20587;-51
2021/10/26 04:42:59;;;;;;;21.40;13.13;;;;;;;4.88;70.31;100906.09;5052193;28;20485;-49
2021/10/26 04:45:25;;;;;;;21.45;13.13;;;;;;;4.64;71.87;100896.75;5051496;28;20076;-49
2021/10/26 04:47:50;;;;;;;59.67;27.52;;;;;;;4.43;72.77;100909.22;5051727;28;20060;-49
2021/10/26 04:50:16;;;;;;;118.80;47.85;;;;;;;4.49;73.23;100913.94;5052500;28;20508;-51
2021/10/26 04:52:42;;;;;;;29.60;14.90;;;;;;;4.75;72.49;100916.09;5052175;28;20021;-50
2021/10/26 04:55:07;;;;;;;24.23;14.10;;;;;;;4.60;72.27;100911.19;5052387;28;20036;-51
2021/10/26 04:57:33;;;;;;;28.45;14.30;;;;;;;4.54;72.93;100908.28;5052174;28;20497;-52
2021/10/26 04:59:58;;;;;;;26.83;14.57;;;;;;;4.69;72.65;100899.00;5052069;28;20028;-51
2021/10/26 05:02:24;;;;;;;27.15;14.27;;;;;;;4.54;72.81;100905.63;5051917;28;20029;-51
2021/10/26 05:04:49;;;;;;;25.70;13.75;;;;;;;4.55;72.89;100905.50;5052384;28;20386;-50
2021/10/26 05:07:16;;;;;;;23.77;13.68;;;;;;;4.80;71.48;100908.59;5052285;28;20032;-46
2021/10/26 05:09:42;;;;;;;50.75;25.85;;;;;;;4.78;71.88;100915.78;5052168;28;20024;-52
2021/10/26 05:12:08;;;;;;;176.57;71.28;;;;;;;5.35;71.44;100911.50;5047306;28;20017;-48
2021/10/26 05:14:33;;;;;;;36.20;16.13;;;;;;;5.27;70.65;100906.94;5033224;28;20404;-51
2021/10/26 05:16:59;;;;;;;49.83;28.40;;;;;;;5.03;71.90;100923.19;5052425;28;20472;-53
2021/10/26 05:19:26;;;;;;;122.05;75.78;;;;;;;5.16;71.33;100922.06;5049081;28;20378;-49
2021/10/26 05:21:53;;;;;;;37.65;21.83;;;;;;;5.29;70.44;100915.53;5044814;28;20347;-49
2021/10/26 05:24:19;;;;;;;84.68;43.45;;;;;;;5.50;70.63;100925.09;5051908;28;20029;-50
2021/10/26 05:26:44;;;;;;;35.22;18.58;;;;;;;5.59;70.06;100912.84;5051238;28;20029;-51
2021/10/26 05:29:10;;;;;;;54.20;27.58;;;;;;;5.76;69.32;100927.13;5033701;28;20098;-52
2021/10/26 05:31:37;;;;;;;47.13;23.55;;;;;;;6.11;68.59;100926.50;5051459;28;20021;-49
2021/10/26 05:34:05;;;;;;;25.85;13.45;;;;;;;6.59;68.17;100933.34;5050317;28;20401;-49
2021/10/26 05:36:30;;;;;;;28.63;13.40;;;;;;;7.01;66.35;100931.94;5052276;28;20035;-51
2021/10/26 05:38:55;;;;;;;41.83;18.92;;;;;;;7.31;64.57;100936.03;5052334;28;20041;-50
2021/10/26 05:41:21;;;;;;;89.38;45.15;;;;;;;7.12;64.20;100899.97;5052225;28;20163;-50
2021/10/26 05:43:46;;;;;;;22.38;12.38;;;;;;;7.59;61.83;100926.13;5052273;28;20021;-52
2021/10/26 05:46:12;;;;;;;19.67;12.75;;;;;;;7.77;62.08;100933.22;5051942;28;20024;-53
2021/10/26 05:48:37;;;;;;;19.48;11.98;;;;;;;7.84;61.16;100934.22;5050706;28;20032;-50
2021/10/26 05:51:05;;;;;;;20.73;11.32;;;;;;;8.23;60.44;100937.25;5048986;28;20082;-49
2021/10/26 05:53:31;;;;;;;20.05;11.82;;;;;;;8.64;58.97;100949.88;5050273;28;20048;-52
2021/10/26 05:55:56;;;;;;;21.15;10.50;;;;;;;8.67;58.55;100944.25;5050334;28;20103;-52
2021/10/26 05:58:22;;;;;;;16.95;10.60;;;;;;;9.18;58.28;100938.88;5050569;28;20029;-48
2021/10/26 06:00:47;;;;;;;23.42;11.27;;;;;;;9.50;57.00;100946.00;5050340;28;20075;-51
2021/10/26 06:03:13;;;;;;;22.75;10.88;;;;;;;9.89;55.38;100941.81;5051028;28;20421;-49
2021/10/26 06:05:38;;;;;;;19.70;11.50;;;;;;;9.99;57.06;100939.75;5051079;28;20029;-53
2021/10/26 06:08:06;;;;;;;28.02;17.50;;;;;;;10.36;56.63;100941.03;5051506;28;20401;-38
2021/10/26 06:10:33;;;;;;;31.20;20.55;;;;;;;10.49;54.38;100951.94;5065902;28;20180;-38
2021/10/26 06:13:04;;;;;;;35.75;22.50;;;;;;;10.59;54.90;100956.22;5071762;28;20036;-38
2021/10/26 06:15:30;;;;;;;34.25;20.27;;;;;;;10.62;52.70;100955.84;5071830;28;20044;-38
2021/10/26 06:17:55;;;;;;;25.95;16.67;;;;;;;10.76;52.04;100960.47;5071440;28;20464;-38
2021/10/26 06:20:20;;;;;;;23.80;15.73;;;;;;;10.96;51.34;100958.97;5071691;28;20032;-38
2021/10/26 06:22:46;;;;;;;18.10;10.93;;;;;;;11.01;50.58;100958.47;5071462;28;20515;-37
2021/10/26 06:25:11;;;;;;;19.45;10.18;;;;;;;11.16;49.61;100953.22;5071072;28;20039;-38
2021/10/26 06:27:37;;;;;;;20.42;10.32;;;;;;;11.20;49.07;100951.03;5070430;28;20134;-38
2021/10/26 06:30:03;;;;;;;21.42;9.90;;;;;;;12.20;47.26;100957.94;5070180;28;20036;-38
2021/10/26 06:32:28;;;;;;;18.15;10.07;;;;;;;11.88;47.28;100955.41;5070406;28;20052;-38
2021/10/26 06:34:54;;;;;;;15.55;9.57;;;;;;;11.67;47.31;100958.78;5071168;28;20491;-38
2021/10/26 06:37:20;;;;;;;16.23;9.32;;;;;;;11.61;47.81;100954.16;5071161;28;20496;-39
2021/10/26 06:39:45;;;;;;;16.23;8.77;;;;;;;11.65;47.72;100955.47;5071109;28;20077;-38
2021/10/26 06:42:11;;;;;;;14.57;8.02;;;;;;;11.71;47.34;100946.75;5069539;28;20040;-38
2021/10/26 06:44:36;;;;;;;18.70;8.93;;;;;;;11.59;48.06;100953.50;5069147;28;20029;-39
2021/10/26 06:47:03;;;;;;;13.80;9.10;;;;;;;11.63;48.29;100946.84;5070410;28;20028;-36
2021/10/26 06:49:29;;;;;;;13.45;8.10;;;;;;;11.84;47.57;100946.13;5070108;28;20027;-37
2021/10/26 06:51:55;;;;;;;18.75;9.25;;;;;;;12.11;46.94;100943.88;5070803;28;20034;-37
2021/10/26 06:54:21;;;;;;;12.52;8.40;;;;;;;12.40;46.16;100945.69;5069839;28;20051;-36
2021/10/26 06:56:46;;;;;;;15.77;7.97;;;;;;;12.61;44.69;100942.25;5070802;28;20473;-37
2021/10/26 06:59:12;;;;;;;12.50;7.28;;;;;;;12.54;45.77;100943.19;5070960;28;20460;-38
2021/10/26 07:01:37;;;;;;;11.80;7.60;;;;;;;12.48;45.76;100934.06;5069487;28;20028;-37
2021/10/26 07:04:03;;;;;;;14.60;7.75;;;;;;;12.37;45.75;100943.38;5069283;28;20339;-38
2021/10/26 07:06:29;;;;;;;12.43;7.35;;;;;;;12.42;46.16;100940.97;5069072;28;20043;-37
2021/10/26 07:08:54;;;;;;;14.05;7.80;;;;;;;12.70;45.35;100945.63;5068597;28;20560;-38
2021/10/26 07:11:20;;;;;;;12.95;8.07;;;;;;;13.01;44.31;100944.53;5069069;28;20463;-38
2021/10/26 07:13:45;;;;;;;13.98;7.68;;;;;;;13.13;44.29;100947.50;5069270;28;20546;-37
2021/10/26 07:16:11;;;;;;;14.32;7.35;;;;;;;13.80;43.36;100933.72;5069468;28;20027;-37
2021/10/26 07:18:36;;;;;;;15.48;8.02;;;;;;;14.17;41.50;100944.22;5070272;28;20341;-38
2021/10/26 07:21:02;;;;;;;12.90;7.80;;;;;;;13.63;42.43;100937.69;5068847;28;20082;-38
2021/10/26 07:23:27;;;;;;;12.30;7.53;;;;;;;13.49;43.28;100936.75;5070332;28;20028;-38
2021/10/26 07:25:54;;;;;;;10.52;7.22;;;;;;;13.31;43.68;100937.22;5070151;28;20024;-38
2021/10/26 07:28:22;;;;;;;11.68;7.45;;;;;;;13.56;42.84;100940.31;5070158;28;20085;-38
2021/10/26 07:30:47;;;;;;;13.23;7.20;;;;;;;13.61;42.94;100937.03;5070127;28;20028;-38
2021/10/26 07:33:22;;;;;;;14.20;8.23;;;;;;;13.94;42.89;100934.59;5069502;28;20041;-38
2021/10/26 07:35:49;;;;;;;12.98;8.07;;;;;;;13.92;42.75;100933.13;5070103;28;20024;-38
2021/10/26 07:38:26;;;;;;;12.60;8.52;;;;;;;13.78;42.98;100919.69;5070251;28;20508;-38
2021/10/26 07:40:51;;;;;;;12.55;8.68;;;;;;;14.04;42.02;100928.91;5069893;28;20035;-38
2021/10/26 07:43:17;;;;;;;12.23;8.38;;;;;;;14.07;42.53;100928.53;5069746;28;20016;-38
2021/10/26 07:45:42;;;;;;;13.00;8.55;;;;;;;13.80;43.74;100927.50;5069798;28;20017;-37
2021/10/26 07:48:08;;;;;;;12.35;8.20;;;;;;;14.07;42.53;100917.81;5070046;28;20024;-38
2021/10/26 07:50:33;;;;;;;14.18;8.02;;;;;;;14.04;41.42;100913.66;5070301;28;20070;-37
2021/10/26 07:52:59;;;;;;;13.57;8.40;;;;;;;14.34;41.88;100921.44;5067507;28;20485;-37
2021/10/26 07:55:24;;;;;;;12.93;8.07;;;;;;;14.52;41.16;100925.41;5050696;28;20100;-38
2021/10/26 07:57:50;;;;;;;15.20;7.90;;;;;;;14.38;41.81;100913.84;5050432;28;20398;-37
2021/10/26 08:00:17;;;;;;;12.90;8.02;;;;;;;14.56;41.26;100919.44;5050021;28;20430;-38
2021/10/26 08:02:43;;;;;;;12.48;8.25;;;;;;;14.26;42.01;100916.25;5048553;28;20033;-37
2021/10/26 08:05:09;;;;;;;13.85;8.20;;;;;;;14.30;41.24;100912.16;5048853;28;20033;-38
2021/10/26 08:07:35;;;;;;;10.98;8.07;;;;;;;14.42;41.18;100909.72;5050167;28;20040;-37
2021/10/26 08:10:00;;;;;;;14.55;7.57;;;;;;;14.41;40.64;100913.41;5049917;28;20021;-39
2021/10/26 08:12:26;;;;;;;15.13;7.65;;;;;;;14.44;41.02;100911.16;5049789;28;20024;-38
2021/10/26 08:14:53;;;;;;;12.20;7.65;;;;;;;14.70;39.75;100915.00;5047880;28;20028;-38
2021/10/26 08:17:18;;;;;;;13.02;7.50;;;;;;;14.18;41.07;100913.72;5047986;28;20029;-38
2021/10/26 08:19:45;;;;;;;10.60;7.50;;;;;;;14.20;41.31;100901.81;5048046;28;20028;-37
2021/10/26 08:22:16;;;;;;;10.63;7.68;;;;;;;14.46;41.18;100901.06;5048337;28;20028;-39
2021/10/26 08:24:43;;;;;;;14.10;7.80;;;;;;;14.64;40.42;100902.38;5048635;28;20048;-37
2021/10/26 08:27:10;;;;;;;12.70;7.22;;;;;;;14.51;40.66;100903.16;5048434;28;20037;-38
2021/10/26 08:34:51;;;;;;;11.15;8.15;;;;;;;14.64;41.29;100895.19;5048310;28;20433;-38
2021/10/26 08:37:17;;;;;;;12.68;7.43;;;;;;;14.51;41.51;100895.13;5049986;28;20032;-38
2021/10/26 08:39:43;;;;;;;13.48;8.05;;;;;;;14.47;41.32;100894.72;5049898;28;20028;-38
2021/10/26 08:42:10;;;;;;;15.27;7.72;;;;;;;14.90;40.98;100893.59;5049896;28;20024;-38
2021/10/26 08:44:36;;;;;;;16.00;7.63;;;;;;;15.20;39.66;100898.56;5049826;28;20103;-38
2021/10/26 08:47:01;;;;;;;12.00;7.35;;;;;;;14.66;40.71;100885.09;5049700;28;20613;-38
2021/10/26 08:49:27;;;;;;;11.85;7.38;;;;;;;14.81;40.61;100889.44;5049706;28;20026;-38
2021/10/26 08:51:53;;;;;;;11.55;7.00;;;;;;;14.57;41.33;100889.00;5048212;28;20024;-38
2021/10/26 08:54:19;;;;;;;18.50;9.70;;;;;;;14.34;42.12;100880.44;5049563;28;20032;-38
2021/10/26 08:56:47;;;;;;;15.98;8.68;;;;;;;14.13;42.27;100881.41;5049802;28;20072;-38
2021/10/26 08:59:17;;;;;;;12.23;8.00;;;;;;;14.11;42.53;100884.28;5049401;28;20021;-38
2021/10/26 09:01:43;;;;;;;;;;;;;;;13.43;43.55;100878.72;5050072;28;20017;-38
2021/10/26 09:04:09;;;;;;;12.68;8.10;;;;;;;13.38;44.51;100881.94;5049205;28;20352;-38
2021/10/26 09:06:52;;;;;;;15.73;8.35;;;;;;;13.93;42.74;100876.75;5047566;28;20080;-38
2021/10/26 09:09:18;;;;;;;15.30;9.02;;;;;;;13.87;43.43;100872.19;5049393;28;20538;-38
2021/10/26 09:17:25;;;;;;;14.02;8.85;;;;;;;14.21;42.97;100863.28;5048840;28;20065;-38
2021/10/26 09:19:51;;;;;;;11.80;6.60;;;;;;;13.56;44.04;100862.75;5049032;28;20361;-38
2021/10/26 09:22:17;;;;;;;10.65;5.93;;;;;;;13.49;42.89;100848.50;5048571;28;20051;-38
2021/10/26 09:24:57;;;;;;;11.63;6.93;;;;;;;13.35;44.42;100852.13;5049114;28;20032;-38
2021/10/26 09:27:23;;;;;;;13.35;7.65;;;;;;;13.39;44.86;100840.84;5052307;28;20025;-39
2021/10/26 09:29:49;;;;;;;14.63;7.22;;;;;;;13.60;45.12;100837.28;5052148;28;20469;-39
2021/10/26 09:32:17;;;;;;;12.68;6.93;;;;;;;13.72;44.80;100842.06;5052087;28;20017;-39
2021/10/26 09:34:59;;;;;;;10.82;7.05;;;;;;;13.88;43.64;100833.72;5052828;28;20036;-39
2021/10/26 09:37:25;;;;;;;12.23;6.75;;;;;;;13.84;43.78;100832.44;5052777;28;20562;-38
2021/10/26 09:39:57;;;;;;;10.20;6.57;;;;;;;14.24;43.36;100833.47;5052386;28;20025;-38
2021/10/26 09:42:23;;;;;;;10.18;6.20;;;;;;;14.01;43.10;100831.13;5052632;28;20037;-39
2021/10/26 09:44:50;;;;;;;12.27;6.57;;;;;;;13.82;43.30;100813.94;5052585;28;20154;-38
2021/10/26 09:47:37;;;;;;;9.98;6.20;;;;;;;13.52;44.44;100815.19;5051948;28;20021;-38
2021/10/26 09:50:07;;;;;;;8.07;6.03;;;;;;;13.73;44.68;100814.28;5051969;28;20029;-38
2021/10/26 09:52:33;;;;;;;13.52;6.80;;;;;;;13.61;44.62;100814.88;5051984;28;20405;-39
2021/10/26 09:54:59;;;;;;;10.73;6.80;;;;;;;13.61;44.57;100798.81;5052024;28;20039;-39
2021/10/26 09:57:26;;;;;;;10.27;6.70;;;;;;;13.81;44.09;100804.25;5052565;28;20037;-38
2021/10/26 09:59:53;;;;;;;11.73;6.80;;;;;;;13.92;43.75;100796.66;5034250;28;20082;-38
2021/10/26 10:02:21;;;;;;;10.57;6.65;;;;;;;14.04;43.34;100793.22;5051601;28;20028;-38
2021/10/26 10:04:47;;;;;;;12.57;6.22;;;;;;;14.12;43.05;100788.72;5050396;28;20102;-38
2021/10/26 10:07:12;;;;;;;8.30;5.97;;;;;;;13.72;43.44;100789.38;5051743;28;20029;-38
2021/10/26 10:09:38;;;;;;;10.95;6.13;;;;;;;13.61;44.16;100782.78;5052036;28;20033;-38
2021/10/26 10:12:05;;;;;;;13.15;7.10;;;;;;;14.22;42.68;100778.44;5050210;28;20025;-38
2021/10/26 10:14:35;;;;;;;8.43;5.82;;;;;;;14.27;42.74;100781.34;5050567;28;20025;-38
2021/10/26 10:17:03;;;;;;;9.73;6.05;;;;;;;14.25;43.24;100770.03;5051585;28;20472;-38
2021/10/26 10:19:29;;;;;;;8.85;5.95;;;;;;;14.03;43.19;100756.81;5051221;28;20025;-38
2021/10/26 10:21:54;;;;;;;9.70;6.63;;;;;;;14.31;42.43;100747.78;5051266;28;20024;-37
2021/10/26 10:24:20;;;;;;;14.10;6.40;;;;;;;14.37;42.84;100746.16;5050050;28;20504;-38
2021/10/26 10:26:50;;;;;;;9.52;5.80;;;;;;;14.27;42.46;100742.00;5033262;28;20039;-38
2021/10/26 10:29:17;;;;;;;9.68;6.13;;;;;;;14.11;43.22;100739.72;5051162;28;20119;-37
2021/10/26 10:31:44;;;;;;;10.18;6.60;;;;;;;14.62;42.28;100733.00;5051003;28;20029;-37
2021/10/26 10:34:09;;;;;;;8.20;6.10;;;;;;;14.41;42.65;100725.97;5049294;28;20079;-39
2021/10/26 10:36:40;;;;;;;9.27;6.05;;;;;;;14.63;42.04;100718.59;5050606;28;20025;-39
2021/10/26 10:39:06;;;;;;;12.00;6.28;;;;;;;14.40;42.16;100718.97;5049882;28;20032;-39
2021/10/26 10:41:34;;;;;;;9.60;6.18;;;;;;;14.55;42.56;100710.75;5050253;28;20091;-39
2021/10/26 10:44:01;;;;;;;11.85;6.15;;;;;;;14.59;42.27;100712.00;5051610;28;20080;-38
2021/10/26 10:46:42;;;;;;;8.35;6.03;;;;;;;14.58;42.25;100716.56;5052189;28;20036;-39
2021/10/26 10:49:22;;;;;;;7.63;5.57;;;;;;;13.89;44.28;100710.44;5063885;28;20130;-39
2021/10/26 10:52:00;;;;;;;10.77;5.85;;;;;;;14.64;42.22;100696.13;5052986;28;20044;-39
2021/10/26 10:54:36;;;;;;;8.50;5.88;;;;;;;14.61;42.90;100700.03;5056469;28;20098;-38
2021/10/26 10:57:20;;;;;;;10.13;6.00;;;;;;;14.63;42.82;100697.97;5055205;28;20036;-38
2021/10/26 10:59:50;;;;;;;9.25;5.78;;;;;;;14.93;42.78;100699.41;5053231;28;20488;-38
2021/10/26 11:02:34;;;;;;;;;;;;;;;15.11;42.11;100690.69;5054847;28;20480;-38
2021/10/26 11:05:00;;;;;;;8.23;5.50;;;;;;;15.06;41.36;100675.25;5051047;28;20058;-38
2021/10/26 11:07:44;;;;;;;7.70;5.88;;;;;;;15.15;41.49;100673.16;5050882;28;20028;-38
2021/10/26 11:10:10;;;;;;;10.85;5.85;;;;;;;14.99;41.25;100672.59;5050857;28;20063;-38
2021/10/26 11:12:37;;;;;;;7.55;5.65;;;;;;;15.18;41.19;100673.56;5051235;28;20024;-40
2021/10/26 11:15:05;;;;;;;11.05;5.80;;;;;;;14.82;41.83;100663.34;5050717;28;20052;-37
2021/10/26 11:20:00;;;;;;;8.05;5.63;;;;;;;14.88;42.14;100650.97;5051027;28;20123;-37
2021/10/26 11:22:47;;;;;;;9.30;5.50;;;;;;;15.06;41.85;100643.09;5050568;28;20056;-39
2021/10/26 11:25:22;;;;;;;7.95;5.70;;;;;;;15.23;41.11;100644.28;5050669;28;20064;-38
2021/10/26 11:27:48;;;;;;;7.38;5.40;;;;;;;15.68;41.01;100643.44;5050440;28;20112;-39
2021/10/26 11:30:28;;;;;;;9.07;5.75;;;;;;;15.29;41.60;100631.03;5050743;28;20098;-38
2021/10/26 11:33:09;;;;;;;;;;;;;;;15.29;41.25;100641.75;5050714;28;20049;-38